Time;durP1;ratioP1;P1;durP2;ratioP2;P2;SDS_P1;SDS_P2;PMS_P1;PMS_P2;Temp;Humidity;BMP_temperature;BMP_pressure;BME280_temperature;BME280_humidity;BME280_pressure;Samples;Min_cycle;Max_cycle;Signal;HPM_P1;HPM_P2
2023/06/15 00:00:20;;;;;;;5.47;2.65;;;;;;;23.73;33.95;101437.03;5028321;27;100187;-62
2023/06/15 00:02:46;;;;;;;7.65;2.72;;;;;;;23.93;33.82;101433.59;5026235;27;97814;-61
2023/06/15 00:05:13;;;;;;;10.13;3.13;;;;;;;23.82;33.97;101434.47;5035829;27;99206;-62
2023/06/15 00:07:40;;;;;;;9.68;3.05;;;;;;;23.73;34.11;101428.94;5035683;27;97267;-63
2023/06/15 00:10:08;;;;;;;4.47;2.70;;;;;;;23.71;34.63;101439.00;5028424;27;98486;-62
2023/06/15 00:12:35;;;;;;;4.78;2.63;;;;;;;23.56;34.89;101433.00;5031142;27;96977;-62
2023/06/15 00:15:01;;;;;;;8.10;3.08;;;;;;;23.52;34.74;101427.94;5030552;27;99078;-62
2023/06/15 00:17:29;;;;;;;4.43;2.60;;;;;;;23.23;35.26;101425.69;5029767;27;99071;-62
2023/06/15 00:19:57;;;;;;;6.15;3.17;;;;;;;23.42;34.98;101422.41;5028368;27;96772;-62
2023/06/15 00:22:26;;;;;;;9.55;2.92;;;;;;;23.53;34.96;101430.53;5032892;27;97223;-62
2023/06/15 00:24:53;;;;;;;5.25;3.10;;;;;;;23.45;35.05;101432.94;5031918;27;99041;-62
2023/06/15 00:27:20;;;;;;;8.23;3.40;;;;;;;23.50;34.97;101429.91;5033544;27;98177;-63
2023/06/15 00:29:46;;;;;;;3.72;2.40;;;;;;;23.36;35.21;101429.13;5037238;27;96813;-62
2023/06/15 00:32:12;;;;;;;5.25;2.63;;;;;;;23.48;34.90;101426.47;5032546;27;97444;-62
2023/06/15 00:34:39;;;;;;;5.70;2.80;;;;;;;23.47;34.95;101428.31;5035745;27;99399;-62
2023/06/15 00:37:05;;;;;;;6.07;2.90;;;;;;;23.16;35.56;101427.13;5031560;27;99176;-62
2023/06/15 00:39:32;;;;;;;6.10;3.28;;;;;;;23.32;35.28;101422.25;5024530;27;97993;-61
2023/06/15 00:41:59;;;;;;;6.53;3.08;;;;;;;23.41;35.45;101415.28;5034923;27;96944;-61
2023/06/15 00:44:26;;;;;;;4.22;3.00;;;;;;;23.42;35.50;101423.25;5028696;27;99030;-61
2023/06/15 00:46:52;;;;;;;9.02;2.90;;;;;;;23.43;35.51;101424.94;5033899;27;100739;-61
2023/06/15 00:49:21;;;;;;;5.60;2.42;;;;;;;23.41;35.56;101426.94;5034684;27;97027;-61
2023/06/15 00:51:48;;;;;;;4.68;2.65;;;;;;;23.24;35.71;101421.97;5031963;27;97126;-61
2023/06/15 00:54:21;;;;;;;7.35;3.08;;;;;;;23.24;35.77;101419.28;5039611;27;100334;-62
2023/06/15 00:56:47;;;;;;;5.03;2.45;;;;;;;23.17;36.14;101423.44;5030367;27;98619;-62
2023/06/15 00:59:15;;;;;;;6.80;2.67;;;;;;;23.05;36.31;101418.97;5035956;27;96797;-62
2023/06/15 01:01:59;;;;;;;7.22;2.85;;;;;;;23.10;36.10;101422.22;5029984;27;97442;-63
2023/06/15 01:04:26;;;;;;;5.53;2.75;;;;;;;23.04;36.30;101423.50;5023096;27;99016;-62
2023/06/15 01:06:56;;;;;;;4.85;2.63;;;;;;;23.16;36.21;101434.34;5031709;27;98920;-62
2023/06/15 01:09:24;;;;;;;4.90;2.92;;;;;;;23.25;35.91;101425.53;5035533;27;96720;-62
2023/06/15 01:11:55;;;;;;;7.22;2.63;;;;;;;22.93;36.55;101423.50;5032918;27;97833;-62
2023/06/15 01:14:25;;;;;;;4.88;3.15;;;;;;;22.86;36.70;101424.06;5036624;27;101085;-61
2023/06/15 01:16:55;;;;;;;12.38;3.10;;;;;;;22.63;37.14;101433.88;5034180;27;98856;-62
2023/06/15 01:19:42;;;;;;;4.60;2.90;;;;;;;22.53;37.48;101431.00;5030886;27;96830;-62
2023/06/15 01:22:14;;;;;;;;;;;;;;;22.59;37.38;101437.75;5037044;27;98728;-62
2023/06/15 01:24:50;;;;;;;5.40;3.03;;;;;;;22.71;36.98;101436.00;5031610;27;99015;-62
2023/06/15 01:27:18;;;;;;;4.33;2.70;;;;;;;22.77;36.84;101435.56;5029458;27;99084;-63
2023/06/15 01:29:45;;;;;;;6.32;3.45;;;;;;;22.28;37.89;101431.09;5024625;27;96842;-62
2023/06/15 01:32:12;;;;;;;7.10;2.95;;;;;;;22.30;37.96;101429.16;5036022;27;96745;-63
2023/06/15 01:34:38;;;;;;;5.18;2.92;;;;;;;22.35;37.90;101429.69;5032891;27;99126;-62
2023/06/15 01:37:05;;;;;;;10.32;3.08;;;;;;;22.28;37.96;101425.72;5039313;27;102087;-62
2023/06/15 01:39:31;;;;;;;9.05;3.15;;;;;;;22.41;37.89;101426.53;5029755;27;97018;-61
2023/06/15 01:41:59;;;;;;;4.53;2.92;;;;;;;22.49;37.78;101425.97;5028684;27;99105;-61
2023/06/15 01:44:26;;;;;;;4.18;2.88;;;;;;;22.59;37.61;101417.06;5027533;27;99006;-61
2023/06/15 01:46:53;;;;;;;3.90;2.67;;;;;;;22.51;37.80;101424.03;5037329;27;98593;-62
2023/06/15 01:49:20;;;;;;;4.20;2.72;;;;;;;22.40;37.86;101427.50;5033953;27;96914;-62
2023/06/15 01:51:47;;;;;;;7.20;3.08;;;;;;;22.29;38.09;101426.56;5027112;27;98146;-62
2023/06/15 01:54:13;;;;;;;6.47;2.65;;;;;;;22.37;37.67;101426.88;5031942;27;98128;-62
2023/06/15 01:56:40;;;;;;;5.25;3.05;;;;;;;22.36;37.74;101419.78;5031886;27;98912;-63
2023/06/15 01:59:06;;;;;;;6.07;2.85;;;;;;;22.11;38.27;101423.41;5038360;27;97701;-62
2023/06/15 02:01:34;;;;;;;5.25;2.70;;;;;;;22.21;38.21;101421.75;5037849;27;96929;-61
2023/06/15 02:04:00;;;;;;;4.93;2.90;;;;;;;22.22;38.25;101416.25;5031757;27;98985;-61
2023/06/15 02:06:27;;;;;;;4.03;2.67;;;;;;;22.09;38.55;101414.59;5038201;27;99072;-61
2023/06/15 02:08:53;;;;;;;7.38;2.60;;;;;;;22.06;38.61;101415.66;5035785;27;96897;-61
2023/06/15 02:11:19;;;;;;;13.32;3.05;;;;;;;22.00;38.79;101412.53;5036112;27;97077;-62
2023/06/15 02:13:46;;;;;;;7.43;3.20;;;;;;;21.93;38.74;101412.09;5034858;27;99291;-61
2023/06/15 02:16:13;;;;;;;5.88;3.20;;;;;;;21.85;38.77;101410.00;5039992;27;99486;-61
2023/06/15 02:18:45;;;;;;;5.93;3.05;;;;;;;21.70;39.39;101405.69;5035802;27;97036;-62
2023/06/15 02:21:11;;;;;;;9.27;2.83;;;;;;;21.77;39.31;101409.69;5034054;27;97174;-61
2023/06/15 02:23:37;;;;;;;9.75;2.83;;;;;;;21.76;39.18;101413.31;5038691;27;99167;-61
2023/06/15 02:26:03;;;;;;;4.40;2.80;;;;;;;21.79;39.25;101405.03;5034442;27;99108;-62
2023/06/15 02:28:30;;;;;;;7.15;3.00;;;;;;;21.64;39.61;101414.22;5040341;27;97551;-61
2023/06/15 02:30:56;;;;;;;5.85;2.83;;;;;;;21.60;39.54;101403.75;5031817;27;96917;-61
2023/06/15 02:33:25;;;;;;;8.52;2.92;;;;;;;21.53;39.90;101408.72;5034135;27;98976;-61
2023/06/15 02:35:53;;;;;;;6.43;3.17;;;;;;;21.58;39.89;101411.09;5034234;27;99023;-61
2023/06/15 02:38:20;;;;;;;6.95;3.13;;;;;;;21.59;39.55;101411.00;5030533;27;96825;-61
2023/06/15 02:40:46;;;;;;;4.35;2.67;;;;;;;21.71;39.29;101412.81;5033175;27;96800;-61
2023/06/15 02:43:13;;;;;;;5.65;3.40;;;;;;;21.57;40.01;101410.22;5033636;27;98771;-62
2023/06/15 02:45:39;;;;;;;3.83;3.00;;;;;;;21.34;40.37;101408.28;5033667;27;98611;-62
2023/06/15 02:48:08;;;;;;;4.68;2.80;;;;;;;21.62;39.94;101413.44;5039213;27;96874;-63
2023/06/15 02:50:35;;;;;;;3.75;2.95;;;;;;;21.76;39.81;101410.63;5032066;27;96963;-61
2023/06/15 02:53:02;;;;;;;6.18;3.20;;;;;;;21.49;40.31;101407.22;5032750;27;99045;-61
2023/06/15 02:55:29;;;;;;;5.25;3.15;;;;;;;21.60;40.00;101415.38;5032872;27;99013;-62
2023/06/15 02:57:55;;;;;;;6.25;2.58;;;;;;;21.74;39.79;101406.31;5038554;27;96748;-62
2023/06/15 03:00:23;;;;;;;5.35;2.90;;;;;;;21.51;40.07;101404.44;5037346;27;97880;-63
2023/06/15 03:02:52;;;;;;;5.00;3.65;;;;;;;21.73;39.77;101408.16;5041479;27;98883;-62
2023/06/15 03:05:18;;;;;;;6.22;3.30;;;;;;;21.77;39.93;101411.50;5035212;27;98844;-61
2023/06/15 03:07:45;;;;;;;7.97;3.38;;;;;;;21.75;39.74;101418.81;5032574;27;96842;-61
2023/06/15 03:10:13;;;;;;;4.35;2.72;;;;;;;21.92;39.49;101417.63;5035251;27;97429;-62
2023/06/15 03:12:39;;;;;;;6.88;2.97;;;;;;;22.02;39.47;101416.00;5043480;27;99096;-62
2023/06/15 03:15:08;;;;;;;7.60;3.17;;;;;;;21.96;39.65;101419.13;5035237;27;100383;-61
2023/06/15 03:17:34;;;;;;;4.97;2.80;;;;;;;21.96;39.71;101416.44;5043984;27;96678;-62
2023/06/15 03:20:03;;;;;;;6.05;2.90;;;;;;;21.85;39.90;101415.38;5028352;27;96872;-61
2023/06/15 03:22:29;;;;;;;5.57;2.85;;;;;;;21.90;39.75;101412.34;5028621;27;101809;-61
2023/06/15 03:24:55;;;;;;;8.20;2.95;;;;;;;21.89;39.86;101410.63;5031959;27;98928;-62
2023/06/15 03:27:23;;;;;;;7.50;2.60;;;;;;;21.88;39.68;101420.50;5042453;27;97158;-62
2023/06/15 03:29:51;;;;;;;4.97;2.55;;;;;;;22.03;39.66;101415.03;5032800;27;97142;-62
2023/06/15 03:32:17;;;;;;;5.30;3.47;;;;;;;22.14;39.26;101424.03;5034098;27;98903;-63
2023/06/15 03:34:44;;;;;;;9.50;4.35;;;;;;;22.03;39.87;101423.09;5034722;27;98741;-62
2023/06/15 03:37:10;;;;;;;8.27;3.38;;;;;;;21.98;39.72;101420.75;5039876;27;98273;-62
2023/06/15 03:39:36;;;;;;;5.53;2.90;;;;;;;21.77;40.32;101420.44;5039776;27;96844;-62
2023/06/15 03:42:03;;;;;;;5.35;3.03;;;;;;;21.99;40.11;101429.69;5036143;27;98825;-61
2023/06/15 03:44:31;;;;;;;6.30;3.42;;;;;;;21.42;41.22;101424.75;5035228;27;98521;-62
2023/06/15 03:46:57;;;;;;;5.28;3.38;;;;;;;21.80;40.61;101422.03;5033187;27;96712;-61
2023/06/15 03:49:23;;;;;;;6.00;3.10;;;;;;;21.79;40.65;101426.53;5034566;27;96877;-60
2023/06/15 03:51:50;;;;;;;8.95;3.28;;;;;;;21.83;40.54;101428.06;5029242;27;99046;-61
2023/06/15 03:54:16;;;;;;;7.15;3.28;;;;;;;21.68;40.88;101428.28;5028529;27;98917;-62
2023/06/15 03:56:44;;;;;;;10.27;3.25;;;;;;;21.60;41.08;101423.44;5030333;27;97026;-62
2023/06/15 03:59:10;;;;;;;7.03;3.08;;;;;;;21.53;41.37;101421.31;5029038;27;97055;-62
2023/06/15 04:01:38;;;;;;;6.03;3.20;;;;;;;21.65;40.98;101417.75;5024835;27;99304;-62
2023/06/15 04:04:05;;;;;;;5.78;3.15;;;;;;;21.85;40.78;101418.06;5032672;27;99251;-61
2023/06/15 04:06:32;;;;;;;8.32;2.90;;;;;;;21.61;41.25;101411.72;5027964;27;96908;-61
2023/06/15 04:08:59;;;;;;;5.68;3.25;;;;;;;21.76;41.01;101410.63;5030141;27;97080;-61
2023/06/15 04:11:25;;;;;;;5.53;2.85;;;;;;;21.76;40.93;101410.63;5029782;27;98886;-61
2023/06/15 04:13:51;;;;;;;7.57;3.40;;;;;;;21.85;40.97;101418.06;5031053;27;99315;-61
2023/06/15 04:16:18;;;;;;;7.78;2.88;;;;;;;21.76;40.88;101418.72;5030548;27;97974;-61
2023/06/15 04:18:45;;;;;;;4.65;3.15;;;;;;;21.91;40.75;101419.44;5035151;27;97133;-62
2023/06/15 04:21:12;;;;;;;9.98;3.22;;;;;;;22.12;40.61;101428.66;5030358;27;98837;-61
2023/06/15 04:23:38;;;;;;;7.68;3.83;;;;;;;22.26;40.16;101423.13;5029812;27;98805;-61
2023/06/15 04:26:06;;;;;;;4.88;3.15;;;;;;;22.24;40.24;101427.78;5035199;27;96691;-61
2023/06/15 04:28:33;;;;;;;3.88;2.80;;;;;;;22.39;39.92;101423.09;5036165;27;97127;-66
2023/06/15 04:31:08;;;;;;;8.23;3.33;;;;;;;22.28;40.26;101431.09;5030927;27;98869;-62
2023/06/15 04:33:36;;;;;;;6.18;3.15;;;;;;;22.26;40.15;101427.66;5033317;27;98954;-61
2023/06/15 04:36:04;;;;;;;4.32;2.67;;;;;;;22.29;40.03;101431.97;5028360;27;97096;-62
2023/06/15 04:38:31;;;;;;;4.13;3.00;;;;;;;22.27;40.28;101424.84;5036573;27;96815;-62
2023/06/15 04:40:57;;;;;;;5.40;2.83;;;;;;;22.34;40.29;101422.56;5032513;27;99149;-62
2023/06/15 04:43:24;;;;;;;4.75;2.97;;;;;;;22.55;39.64;101434.44;5038488;27;99166;-61
2023/06/15 04:45:50;;;;;;;8.20;3.13;;;;;;;22.36;40.22;101430.53;5031945;27;96818;-61
2023/06/15 04:48:17;;;;;;;7.78;3.10;;;;;;;22.53;39.66;101433.69;5031354;27;96922;-61
2023/06/15 04:50:47;;;;;;;9.50;3.05;;;;;;;22.43;40.02;101435.38;5032489;27;98915;-61
2023/06/15 04:53:16;;;;;;;9.32;3.90;;;;;;;22.47;39.89;101435.97;5033239;27;97750;-62
2023/06/15 04:55:43;;;;;;;8.32;3.15;;;;;;;22.60;39.48;101432.25;5031641;27;96755;-62
2023/06/15 04:58:09;;;;;;;8.07;3.75;;;;;;;22.72;39.33;101443.94;5023881;27;96878;-62
2023/06/15 05:00:36;;;;;;;6.90;3.50;;;;;;;22.65;39.34;101435.47;5032117;27;99242;-61
2023/06/15 05:03:02;;;;;;;5.45;3.78;;;;;;;22.99;38.88;101430.25;5036778;27;100022;-62
2023/06/15 05:05:28;;;;;;;8.75;3.63;;;;;;;23.04;38.80;101444.22;5032095;27;96742;-62
2023/06/15 05:07:55;;;;;;;4.15;2.88;;;;;;;23.08;38.67;101436.78;5032656;27;98655;-62
2023/06/15 05:10:22;;;;;;;3.58;3.17;;;;;;;23.30;38.38;101436.84;5030969;27;97872;-61
2023/06/15 05:12:49;;;;;;;5.05;3.10;;;;;;;23.67;37.72;101442.91;5035216;27;98869;-62
2023/06/15 05:15:15;;;;;;;4.40;2.95;;;;;;;23.66;37.61;101441.19;5025736;27;96892;-62
2023/06/15 05:17:42;;;;;;;9.07;3.55;;;;;;;23.70;37.58;101435.44;5027165;27;96851;-62
2023/06/15 05:20:09;;;;;;;6.15;3.55;;;;;;;23.54;37.99;101437.63;5030314;27;99038;-61
2023/06/15 05:22:35;;;;;;;9.43;3.10;;;;;;;23.58;37.92;101440.94;5025143;27;98867;-62
2023/06/15 05:25:03;;;;;;;6.28;3.70;;;;;;;23.35;38.43;101440.88;5031833;27;96940;-62
2023/06/15 05:27:34;;;;;;;10.95;3.42;;;;;;;23.57;37.91;101441.91;5021912;27;96988;-62
2023/06/15 05:30:01;;;;;;;12.75;3.10;;;;;;;23.53;38.23;101445.84;5029686;27;99185;-62
2023/06/15 05:32:27;;;;;;;7.55;3.58;;;;;;;23.44;38.24;101442.00;5032122;27;99065;-62
2023/06/15 05:34:53;;;;;;;8.57;3.13;;;;;;;23.39;38.67;101438.81;5035727;27;96863;-63
2023/06/15 05:37:35;;;;;;;6.45;3.10;;;;;;;23.55;38.15;101447.47;5036120;27;96790;-62
2023/06/15 05:40:02;;;;;;;13.25;3.35;;;;;;;23.67;38.00;101448.31;5029612;27;98922;-62
2023/06/15 05:42:30;;;;;;;8.90;3.00;;;;;;;23.88;37.62;101460.09;5035031;27;98876;-64
2023/06/15 05:44:57;;;;;;;8.77;3.33;;;;;;;23.50;38.31;101452.31;5033648;27;96811;-62
2023/06/15 05:47:23;;;;;;;4.82;2.97;;;;;;;23.65;38.43;101450.28;5028482;27;97098;-62
2023/06/15 05:49:49;;;;;;;4.50;3.03;;;;;;;23.70;38.46;101458.84;5030294;27;98954;-62
2023/06/15 05:52:17;;;;;;;5.25;3.00;;;;;;;23.58;38.13;101454.44;5028949;27;98957;-63
2023/06/15 05:54:44;;;;;;;4.65;2.85;;;;;;;23.60;38.10;101452.47;5038558;27;96803;-62
2023/06/15 05:57:12;;;;;;;7.05;3.22;;;;;;;23.51;38.78;101455.88;5033428;27;97670;-63
2023/06/15 05:59:40;;;;;;;6.25;3.33;;;;;;;23.85;38.15;101463.03;5034482;27;98994;-62
2023/06/15 06:02:08;;;;;;;6.53;2.95;;;;;;;23.93;37.88;101471.38;5032605;27;99235;-60
2023/06/15 06:04:34;;;;;;;5.80;3.22;;;;;;;23.74;37.93;101469.31;5038027;27;96838;-61
2023/06/15 06:07:01;;;;;;;6.72;3.15;;;;;;;23.68;38.28;101466.22;5035958;27;97441;-62
2023/06/15 06:09:27;;;;;;;7.25;2.67;;;;;;;23.90;37.77;101460.81;5041657;27;98936;-62
2023/06/15 06:11:54;;;;;;;7.18;3.00;;;;;;;23.76;38.32;101467.31;5039574;27;99018;-62
2023/06/15 06:14:20;;;;;;;6.50;2.67;;;;;;;24.03;37.29;101468.78;5039087;27;96700;-62
2023/06/15 06:16:48;;;;;;;15.43;3.38;;;;;;;23.97;37.64;101459.34;5034441;27;96930;-61
2023/06/15 06:19:14;;;;;;;5.85;2.63;;;;;;;24.04;37.27;101459.72;5041698;27;97097;-63
2023/06/15 06:21:40;;;;;;;11.85;3.53;;;;;;;23.93;37.56;101466.00;5039583;27;97731;-62
2023/06/15 06:24:07;;;;;;;7.07;2.72;;;;;;;24.07;37.29;101463.03;5033348;27;96799;-62
2023/06/15 06:26:35;;;;;;;5.45;2.60;;;;;;;24.03;37.29;101458.00;5035138;27;97237;-62
2023/06/15 06:29:01;;;;;;;5.07;2.97;;;;;;;23.61;37.97;101463.16;5033737;27;99187;-62
2023/06/15 06:31:27;;;;;;;16.00;2.97;;;;;;;23.32;38.67;101462.69;5036834;27;98878;-61
2023/06/15 06:34:02;;;;;;;9.38;2.95;;;;;;;23.10;39.21;101464.47;5044350;27;96833;-61
2023/06/15 06:36:28;;;;;;;6.85;3.20;;;;;;;23.37;38.69;101468.56;5040155;27;96703;-61
2023/06/15 06:38:55;;;;;;;7.05;3.33;;;;;;;23.83;37.85;101462.28;5034760;27;99330;-61
2023/06/15 06:41:22;;;;;;;5.35;3.25;;;;;;;24.04;37.36;101468.69;5035596;27;99838;-62
2023/06/15 06:43:48;;;;;;;8.40;3.00;;;;;;;24.26;37.20;101464.28;5033028;27;97073;-61
2023/06/15 06:46:15;;;;;;;5.07;3.10;;;;;;;24.40;36.60;101461.31;5040502;27;97262;-62
2023/06/15 06:48:41;;;;;;;5.80;2.90;;;;;;;24.32;36.56;101461.06;5035073;27;99379;-68
2023/06/15 06:51:09;;;;;;;7.82;3.28;;;;;;;24.57;36.43;101468.88;5033677;27;98989;-68
2023/06/15 06:53:35;;;;;;;5.18;2.95;;;;;;;24.55;36.55;101465.44;5034416;27;96822;-67
2023/06/15 06:56:02;;;;;;;10.88;2.95;;;;;;;24.65;36.23;101468.25;5034605;27;96757;-68
2023/06/15 06:58:28;;;;;;;7.70;3.58;;;;;;;24.55;36.38;101469.00;5035216;27;98896;-68
2023/06/15 07:00:54;;;;;;;8.05;2.60;;;;;;;24.23;36.46;101455.44;5038600;27;98842;-69
2023/06/15 07:03:21;;;;;;;9.02;2.90;;;;;;;24.34;36.27;101462.69;5035388;27;96755;-67
2023/06/15 07:05:47;;;;;;;4.30;3.03;;;;;;;24.47;36.37;101462.53;5043854;27;97058;-67
2023/06/15 07:08:15;;;;;;;7.25;2.88;;;;;;;24.72;35.54;101458.63;5035869;27;99029;-68
2023/06/15 07:10:41;;;;;;;9.02;3.60;;;;;;;25.01;35.68;101459.75;5032742;27;99069;-68
2023/06/15 07:13:08;;;;;;;7.28;3.20;;;;;;;25.23;34.76;101465.06;5035615;27;96730;-68
2023/06/15 07:15:34;;;;;;;6.05;3.35;;;;;;;25.55;34.58;101459.56;5035142;27;96884;-67
2023/06/15 07:18:00;;;;;;;7.82;2.80;;;;;;;25.45;34.64;101455.97;5040073;27;100787;-68
2023/06/15 07:20:27;;;;;;;5.15;3.20;;;;;;;25.62;34.24;101449.97;5035895;27;98753;-68
2023/06/15 07:22:53;;;;;;;7.15;3.08;;;;;;;25.68;34.01;101453.97;5032841;27;97079;-68
2023/06/15 07:25:21;;;;;;;9.15;2.95;;;;;;;26.08;33.27;101452.16;5036632;27;97319;-68
2023/06/15 07:27:47;;;;;;;5.75;2.72;;;;;;;25.91;33.81;101457.38;5033068;27;97904;-68
2023/06/15 07:30:15;;;;;;;7.50;3.42;;;;;;;26.50;32.83;101460.16;5034543;27;99835;-69
2023/06/15 07:32:41;;;;;;;8.73;3.55;;;;;;;25.97;33.75;101454.13;5032057;27;96808;-66
2023/06/15 07:35:08;;;;;;;7.53;2.75;;;;;;;26.10;33.54;101449.31;5033550;27;96892;-67
2023/06/15 07:37:34;;;;;;;7.57;2.92;;;;;;;25.84;33.85;101456.19;5037642;27;99377;-67
2023/06/15 07:40:01;;;;;;;5.57;2.88;;;;;;;25.76;34.17;101454.16;5039988;27;98118;-68
2023/06/15 07:42:28;;;;;;;6.68;3.25;;;;;;;25.48;34.33;101458.41;5036356;27;97061;-68
2023/06/15 07:44:55;;;;;;;8.00;3.15;;;;;;;25.67;34.33;101452.25;5037882;27;96919;-68
2023/06/15 07:47:21;;;;;;;9.07;3.53;;;;;;;25.67;33.89;101446.84;5033591;27;99195;-68
2023/06/15 07:49:47;;;;;;;5.18;2.72;;;;;;;25.67;34.36;101445.00;5035668;27;98829;-67
2023/06/15 07:52:14;;;;;;;6.90;3.15;;;;;;;25.84;34.17;101456.19;5035189;27;97059;-68
2023/06/15 07:54:41;;;;;;;4.32;3.08;;;;;;;25.87;33.89;101451.38;5043649;27;96964;-68
2023/06/15 07:57:07;;;;;;;9.45;3.22;;;;;;;26.11;33.78;101446.50;5029715;27;99392;-68
2023/06/15 07:59:35;;;;;;;5.13;3.20;;;;;;;26.24;33.54;101448.97;5032969;27;99011;-71
2023/06/15 08:02:02;;;;;;;10.27;3.65;;;;;;;26.98;32.55;101447.50;5029618;27;97311;-68
2023/06/15 08:04:29;;;;;;;8.52;3.60;;;;;;;27.21;32.03;101448.06;5023986;27;96947;-68
2023/06/15 08:06:55;;;;;;;13.70;3.85;;;;;;;27.35;31.86;101449.47;5033806;27;99267;-67
2023/06/15 08:09:22;;;;;;;14.70;3.70;;;;;;;27.75;31.17;101441.13;5035392;27;99437;-68
2023/06/15 08:11:49;;;;;;;7.93;4.00;;;;;;;27.50;31.45;101448.03;5030420;27;97261;-67
2023/06/15 08:14:16;;;;;;;13.73;3.78;;;;;;;28.03;30.99;101444.69;5028778;27;98540;-67
2023/06/15 08:16:43;;;;;;;6.22;3.28;;;;;;;28.18;30.65;101439.66;5032680;27;99764;-67
2023/06/15 08:19:10;;;;;;;8.70;3.17;;;;;;;27.97;30.71;101434.41;5033492;27;100967;-67
2023/06/15 08:21:36;;;;;;;5.65;3.10;;;;;;;28.14;30.65;101436.38;5036133;27;97697;-67
2023/06/15 08:24:02;;;;;;;7.70;3.15;;;;;;;27.92;30.91;101440.31;5034095;27;97388;-67
2023/06/15 08:26:29;;;;;;;4.88;2.95;;;;;;;28.07;30.91;101443.41;5032410;27;100856;-67
2023/06/15 08:28:55;;;;;;;6.05;2.97;;;;;;;27.92;31.04;101431.31;5027892;27;97610;-68
2023/06/15 08:31:22;;;;;;;7.32;3.00;;;;;;;28.01;30.71;101441.28;5028098;27;97037;-67
2023/06/15 08:33:50;;;;;;;7.45;3.60;;;;;;;27.88;31.21;101438.91;5029922;27;97646;-67
2023/06/15 08:36:16;;;;;;;7.22;3.90;;;;;;;27.90;31.32;101436.03;5029446;27;99530;-67
2023/06/15 08:38:43;;;;;;;5.00;3.53;;;;;;;27.91;31.13;101443.19;5025444;27;97995;-68
2023/06/15 08:41:10;;;;;;;5.80;3.95;;;;;;;28.32;30.72;101433.69;5028107;27;96832;-68
2023/06/15 08:43:37;;;;;;;7.38;3.88;;;;;;;28.34;30.62;101438.00;5026316;27;97230;-68
2023/06/15 08:46:04;;;;;;;8.90;3.30;;;;;;;27.91;31.01;101435.88;5025452;27;99165;-68
2023/06/15 08:48:33;;;;;;;7.35;4.15;;;;;;;28.34;30.42;101428.97;5022669;27;98938;-67
2023/06/15 08:51:01;;;;;;;4.90;3.38;;;;;;;28.68;29.39;101432.75;5030012;27;96996;-68
2023/06/15 08:53:28;;;;;;;5.43;3.17;;;;;;;28.68;29.60;101429.16;5031177;27;96966;-68
2023/06/15 08:55:54;;;;;;;7.63;3.67;;;;;;;28.45;29.92;101428.75;5026465;27;99007;-70
2023/06/15 08:58:21;;;;;;;8.40;3.53;;;;;;;28.99;29.67;101429.66;5031473;27;98871;-67
2023/06/15 09:00:47;;;;;;;6.82;3.60;;;;;;;28.80;29.36;101423.38;5030604;27;97249;-68
2023/06/15 09:03:18;;;;;;;8.18;3.92;;;;;;;28.82;29.49;101421.31;5032515;27;98130;-69
2023/06/15 09:05:45;;;;;;;6.50;3.60;;;;;;;28.95;28.90;101425.53;5031537;27;99378;-70
2023/06/15 09:08:12;;;;;;;7.00;3.55;;;;;;;28.85;29.42;101426.47;5030400;27;99167;-68
2023/06/15 09:10:41;;;;;;;5.43;3.50;;;;;;;29.53;28.25;101423.09;5030364;27;96842;-69
2023/06/15 09:13:15;;;;;;;8.48;3.75;;;;;;;29.99;28.09;101419.13;5034823;27;96994;-70
2023/06/15 09:15:43;;;;;;;9.60;4.30;;;;;;;29.54;27.72;101422.06;5033237;27;98968;-69
2023/06/15 09:18:13;;;;;;;8.57;3.55;;;;;;;29.35;28.15;101419.56;5036365;27;98817;-68
2023/06/15 09:20:40;;;;;;;9.82;3.88;;;;;;;29.86;27.92;101415.97;5032263;27;97569;-68
2023/06/15 09:23:11;;;;;;;17.77;11.68;;;;;;;30.19;27.52;101423.28;5027888;27;97161;-67
2023/06/15 09:25:41;;;;;;;8.95;4.18;;;;;;;30.06;27.43;101422.91;5031974;27;99222;-67
2023/06/15 09:28:08;;;;;;;5.47;3.53;;;;;;;30.02;26.73;101424.22;5034355;27;99032;-67
2023/06/15 09:30:36;;;;;;;5.65;3.45;;;;;;;30.06;26.87;101420.16;5032861;27;97372;-68
2023/06/15 09:33:12;;;;;;;10.18;3.75;;;;;;;29.85;27.16;101417.84;5032215;27;97050;-67
2023/06/15 09:35:55;;;;;;;4.93;3.60;;;;;;;29.90;27.85;101426.38;5033632;27;99496;-67
2023/06/15 09:38:21;;;;;;;7.18;4.38;;;;;;;29.68;27.96;101408.72;5039166;27;98943;-68
2023/06/15 09:40:49;;;;;;;6.95;3.90;;;;;;;30.14;27.80;101414.72;5034741;27;97315;-67
2023/06/15 09:43:16;;;;;;;12.80;3.75;;;;;;;30.06;28.52;101415.53;5034156;27;97184;-68
2023/06/15 09:45:49;;;;;;;7.45;3.65;;;;;;;30.06;28.18;101407.38;5037510;27;98890;-67
2023/06/15 09:48:15;;;;;;;6.28;3.38;;;;;;;29.92;27.73;101416.19;5032482;27;99461;-67
2023/06/15 09:50:42;;;;;;;6.88;3.67;;;;;;;29.66;27.69;101416.22;5032822;27;96829;-68
2023/06/15 09:53:12;;;;;;;5.97;3.88;;;;;;;29.40;28.05;101411.78;5035789;27;96899;-68
2023/06/15 09:55:43;;;;;;;5.75;3.33;;;;;;;28.90;28.28;101413.25;5030091;27;99216;-68
2023/06/15 09:58:10;;;;;;;5.28;3.20;;;;;;;28.76;29.15;101419.22;5031693;27;99145;-68
2023/06/15 10:00:37;;;;;;;8.48;3.67;;;;;;;28.88;28.16;101419.88;5032794;27;98098;-66
2023/06/15 10:03:05;;;;;;;8.88;3.95;;;;;;;29.14;27.87;101423.50;5032380;27;97220;-67
2023/06/15 10:05:33;;;;;;;4.45;3.67;;;;;;;29.33;27.44;101417.00;5036201;27;99238;-68
2023/06/15 10:08:04;;;;;;;10.65;3.95;;;;;;;29.07;27.24;101416.97;5034548;27;98810;-68
2023/06/15 10:10:31;;;;;;;7.15;3.72;;;;;;;29.42;27.34;101407.88;5034442;27;97565;-67
2023/06/15 10:13:00;;;;;;;7.45;3.72;;;;;;;29.52;27.09;101416.81;5031815;27;96947;-68
2023/06/15 10:15:31;;;;;;;7.30;3.60;;;;;;;29.60;27.22;101414.09;5033168;27;98845;-67
2023/06/15 10:18:01;;;;;;;9.48;3.90;;;;;;;29.55;27.31;101413.75;5037158;27;98788;-67
2023/06/15 10:20:29;;;;;;;11.30;4.13;;;;;;;29.36;27.94;101419.41;5035452;27;96897;-67
2023/06/15 10:23:03;;;;;;;7.22;4.20;;;;;;;29.39;28.08;101412.81;5035578;27;96943;-67
2023/06/15 10:25:30;;;;;;;5.97;4.00;;;;;;;28.92;27.75;101427.56;5028939;27;98933;-68
2023/06/15 10:27:57;;;;;;;6.13;3.78;;;;;;;29.16;27.91;101421.44;5030043;27;99159;-67
2023/06/15 10:30:32;;;;;;;5.10;3.70;;;;;;;29.03;27.90;101425.59;5025794;27;97401;-68
2023/06/15 10:33:09;;;;;;;9.23;3.77;;;;;;;29.08;27.83;101426.00;5037925;27;97414;-68
2023/06/15 10:35:40;;;;;;;8.43;3.50;;;;;;;29.12;27.83;101424.66;5033553;27;97793;-67
2023/06/15 10:38:20;;;;;;;7.38;3.90;;;;;;;28.73;27.87;101427.69;5034989;27;99129;-67
2023/06/15 10:40:48;;;;;;;7.63;3.60;;;;;;;28.74;27.44;101418.56;5033323;27;96791;-67
2023/06/15 10:43:18;;;;;;;15.68;4.18;;;;;;;28.58;26.86;101423.78;5029587;27;97257;-67
2023/06/15 10:45:47;;;;;;;7.78;3.40;;;;;;;28.77;26.73;101418.22;5029993;27;99400;-67
2023/06/15 10:48:22;;;;;;;7.90;3.28;;;;;;;28.65;26.47;101419.44;5033261;27;99353;-67
2023/06/15 10:50:50;;;;;;;6.32;3.20;;;;;;;28.71;25.72;101421.53;5030666;27;97130;-61
2023/06/15 10:53:24;;;;;;;9.80;3.53;;;;;;;28.74;26.11;101418.56;5031158;27;96863;-62
2023/06/15 10:55:55;;;;;;;6.05;3.20;;;;;;;28.54;26.46;101414.25;5038959;27;98946;-63
2023/06/15 10:58:22;;;;;;;22.25;3.30;;;;;;;28.69;26.40;101415.41;5029216;27;99790;-62
2023/06/15 11:01:07;;;;;;;7.70;3.33;;;;;;;28.76;26.82;101426.53;5030631;27;97120;-62
2023/06/15 11:03:34;;;;;;;3.42;3.13;;;;;;;28.79;26.99;101418.09;5030498;27;97426;-63
2023/06/15 11:06:02;;;;;;;5.95;2.55;;;;;;;28.78;26.69;101421.81;5034607;27;101491;-63
2023/06/15 11:08:31;;;;;;;6.90;3.22;;;;;;;28.51;26.79;101418.13;5026986;27;98898;-62
2023/06/15 11:10:58;;;;;;;8.60;3.28;;;;;;;28.22;27.00;101416.63;5024433;27;96904;-62
2023/06/15 11:13:25;;;;;;;3.53;2.85;;;;;;;28.47;26.45;101415.88;5033204;27;96948;-62
2023/06/15 11:16:08;;;;;;;7.03;2.70;;;;;;;28.52;25.51;101408.97;5029863;27;99150;-63
2023/06/15 11:18:34;;;;;;;2.90;2.50;;;;;;;28.57;26.05;101410.34;5025355;27;98853;-61
2023/06/15 11:21:02;;;;;;;4.38;2.45;;;;;;;28.57;25.47;101418.50;5030186;27;96898;-62
2023/06/15 11:23:33;;;;;;;7.88;2.92;;;;;;;28.84;25.00;101408.44;5035850;27;96854;-61
2023/06/15 11:26:01;;;;;;;5.03;2.55;;;;;;;28.91;25.03;101409.53;5027842;27;98912;-63